Terminal Aerodrome Forecast
Issued by NWS

Home | Current Version | Previous Version | Text Only | Print | Product List | Glossary On
Versions: 1 2 3 4 5 6 7 8 9 10 11 12 13 14 15 16 17 18 19 20
000
FTUS44 KBMX 012113 AAA
TAFTCL
TAF AMD
KTCL 012113Z 0121/0218 25010G15KT 6SM SHRA SCT035 OVC090
     FM012300 17005KT P6SM BKN050
     FM020900 15004KT P6SM BKN015=

USA.gov is the U.S. government's official web portal to all federal, state and local government web resources and services.